Search for airport 
image banner adimage banner adimage banner ad
image banner ad

KBFD - Bradford Rgnl

Located in Bradford, United States

ICAO - BFD, IATA - BFD

Data provided by Airmate  

General information

Coordinates: N41°48'11" W78°38'24"
Elevation is 2143 feet MSL.
Magnetic variation is -11° East
View others Airports in Pennsylvania

Operational data

Special qualification required
Current time UTC:
Current local time:
Weather
METAR: KBFD 182253Z AUTO 32005KT 10SM CLR 24/02 A3030 RMK AO2 SLP254 T02440017
TAF: KBFD 182225Z 1822/1918 VRB05KT P6SM SKC FM190100 00000KT P6SM SKC FM191400 VRB04KT P6SM SCT250
View NOTAMs / SUP AIP / TFR affecting this airport [VIEW]
Communications frequencies: [VIEW]

Runways:

RWY identifierQFULength (ft)Width (ft)SurfaceLDA (ft)
0544°4499100ASPH4499
23224°4499100ASPH4499
14134°6307150ASPH6306
32314°6307150ASPH6306

Airport contact information

Address: Bradford United States

Other aviation service providers

Flight schools

Alle-Catt Flight Training

Alle-Catt Flight Training
steve@allecatt.com+1(716)378-7893

Satellite view of KBFD